sensor_id;sensor_type;location;lat;lon;timestamp;P1;durP1;ratioP1;P2;durP2;ratioP2
47513;SDS011;33951;51.988;5.910;2022-12-07T00:11:25;23.08;;;16.05;;
47513;SDS011;33951;51.988;5.910;2022-12-07T00:14:24;22.83;;;15.40;;
47513;SDS011;33951;51.988;5.910;2022-12-07T00:26:52;16.63;;;11.00;;
47513;SDS011;33951;51.988;5.910;2022-12-07T00:29:21;17.90;;;11.40;;
47513;SDS011;33951;51.988;5.910;2022-12-07T05:00:30;18.00;;;6.70;;
47513;SDS011;33951;51.988;5.910;2022-12-07T05:02:56;8.13;;;3.95;;
47513;SDS011;33951;51.988;5.910;2022-12-07T05:05:24;10.25;;;3.75;;
47513;SDS011;33951;51.988;5.910;2022-12-07T05:07:50;11.73;;;3.92;;
47513;SDS011;33951;51.988;5.910;2022-12-07T05:10:25;10.95;;;4.20;;
47513;SDS011;33951;51.988;5.910;2022-12-07T05:12:51;15.32;;;4.60;;
47513;SDS011;33951;51.988;5.910;2022-12-07T05:35:17;13.55;;;4.05;;
47513;SDS011;33951;51.988;5.910;2022-12-07T05:41:15;7.28;;;4.03;;
47513;SDS011;33951;51.988;5.910;2022-12-07T05:44:33;5.65;;;3.33;;
47513;SDS011;33951;51.988;5.910;2022-12-07T05:47:01;10.93;;;3.85;;
47513;SDS011;33951;51.988;5.910;2022-12-07T06:02:48;17.35;;;4.47;;
47513;SDS011;33951;51.988;5.910;2022-12-07T06:05:24;14.85;;;4.35;;
47513;SDS011;33951;51.988;5.910;2022-12-07T06:15:14;10.48;;;3.95;;
47513;SDS011;33951;51.988;5.910;2022-12-07T06:18:26;11.77;;;3.53;;
47513;SDS011;33951;51.988;5.910;2022-12-07T06:21:13;8.73;;;3.38;;
47513;SDS011;33951;51.988;5.910;2022-12-07T06:24:09;11.90;;;3.03;;
47513;SDS011;33951;51.988;5.910;2022-12-07T06:26:39;14.40;;;7.07;;
47513;SDS011;33951;51.988;5.910;2022-12-07T06:29:47;13.32;;;3.58;;
47513;SDS011;33951;51.988;5.910;2022-12-07T06:32:37;12.30;;;3.20;;
47513;SDS011;33951;51.988;5.910;2022-12-07T06:35:32;7.95;;;2.40;;
47513;SDS011;33951;51.988;5.910;2022-12-07T06:38:03;11.23;;;3.70;;
47513;SDS011;33951;51.988;5.910;2022-12-07T06:40:46;12.15;;;3.70;;
47513;SDS011;33951;51.988;5.910;2022-12-07T06:43:14;9.60;;;3.95;;
47513;SDS011;33951;51.988;5.910;2022-12-07T06:45:40;20.27;;;4.40;;
47513;SDS011;33951;51.988;5.910;2022-12-07T06:48:08;10.02;;;4.10;;
47513;SDS011;33951;51.988;5.910;2022-12-07T06:51:02;12.18;;;3.72;;
47513;SDS011;33951;51.988;5.910;2022-12-07T06:56:52;14.70;;;5.03;;
47513;SDS011;33951;51.988;5.910;2022-12-07T07:00:19;16.02;;;4.05;;
47513;SDS011;33951;51.988;5.910;2022-12-07T07:05:51;16.98;;;3.88;;
47513;SDS011;33951;51.988;5.910;2022-12-07T07:08:32;15.75;;;4.07;;
47513;SDS011;33951;51.988;5.910;2022-12-07T07:11:19;17.65;;;4.43;;
47513;SDS011;33951;51.988;5.910;2022-12-07T07:13:47;12.55;;;4.88;;
47513;SDS011;33951;51.988;5.910;2022-12-07T07:16:12;8.10;;;3.50;;
47513;SDS011;33951;51.988;5.910;2022-12-07T07:18:41;10.73;;;2.95;;
47513;SDS011;33951;51.988;5.910;2022-12-07T07:21:07;19.50;;;4.00;;
47513;SDS011;33951;51.988;5.910;2022-12-07T07:23:32;9.98;;;3.50;;
47513;SDS011;33951;51.988;5.910;2022-12-07T07:25:58;17.00;;;4.40;;
47513;SDS011;33951;51.988;5.910;2022-12-07T07:28:24;8.88;;;3.67;;
47513;SDS011;33951;51.988;5.910;2022-12-07T07:30:49;10.88;;;3.85;;
47513;SDS011;33951;51.988;5.910;2022-12-07T07:33:15;9.93;;;3.28;;
47513;SDS011;33951;51.988;5.910;2022-12-07T07:35:41;11.38;;;3.92;;
47513;SDS011;33951;51.988;5.910;2022-12-07T07:38:07;16.80;;;4.28;;
47513;SDS011;33951;51.988;5.910;2022-12-07T07:40:33;14.95;;;3.80;;
47513;SDS011;33951;51.988;5.910;2022-12-07T07:43:14;11.43;;;4.22;;
47513;SDS011;33951;51.988;5.910;2022-12-07T07:45:42;15.18;;;3.95;;
47513;SDS011;33951;51.988;5.910;2022-12-07T07:48:25;10.95;;;3.08;;
47513;SDS011;33951;51.988;5.910;2022-12-07T07:51:21;11.13;;;3.47;;
47513;SDS011;33951;51.988;5.910;2022-12-07T07:53:50;9.07;;;3.42;;
47513;SDS011;33951;51.988;5.910;2022-12-07T07:56:18;15.02;;;3.60;;
47513;SDS011;33951;51.988;5.910;2022-12-07T07:59:09;17.08;;;3.75;;
47513;SDS011;33951;51.988;5.910;2022-12-07T08:02:19;14.63;;;3.70;;
47513;SDS011;33951;51.988;5.910;2022-12-07T08:04:56;19.75;;;3.53;;
47513;SDS011;33951;51.988;5.910;2022-12-07T08:07:41;13.65;;;4.30;;
47513;SDS011;33951;51.988;5.910;2022-12-07T08:10:20;18.17;;;4.47;;
47513;SDS011;33951;51.988;5.910;2022-12-07T08:12:50;10.43;;;3.10;;
47513;SDS011;33951;51.988;5.910;2022-12-07T08:15:35;15.05;;;3.97;;
47513;SDS011;33951;51.988;5.910;2022-12-07T08:18:07;13.32;;;3.20;;
47513;SDS011;33951;51.988;5.910;2022-12-07T08:21:14;10.52;;;3.38;;
47513;SDS011;33951;51.988;5.910;2022-12-07T08:26:57;16.15;;;4.85;;
47513;SDS011;33951;51.988;5.910;2022-12-07T08:29:30;11.00;;;3.78;;
47513;SDS011;33951;51.988;5.910;2022-12-07T08:32:01;15.50;;;4.00;;
47513;SDS011;33951;51.988;5.910;2022-12-07T08:34:29;12.95;;;4.40;;
47513;SDS011;33951;51.988;5.910;2022-12-07T08:36:57;9.80;;;3.60;;
47513;SDS011;33951;51.988;5.910;2022-12-07T08:39:23;12.90;;;4.60;;
47513;SDS011;33951;51.988;5.910;2022-12-07T08:41:48;16.92;;;4.00;;
47513;SDS011;33951;51.988;5.910;2022-12-07T08:44:14;16.88;;;4.72;;
47513;SDS011;33951;51.988;5.910;2022-12-07T08:46:41;12.00;;;4.78;;
47513;SDS011;33951;51.988;5.910;2022-12-07T08:49:12;10.52;;;4.82;;
47513;SDS011;33951;51.988;5.910;2022-12-07T08:51:47;11.80;;;4.20;;
47513;SDS011;33951;51.988;5.910;2022-12-07T08:54:16;12.02;;;3.05;;
47513;SDS011;33951;51.988;5.910;2022-12-07T08:56:43;12.25;;;4.32;;
47513;SDS011;33951;51.988;5.910;2022-12-07T08:59:12;14.52;;;5.90;;
47513;SDS011;33951;51.988;5.910;2022-12-07T09:01:46;18.35;;;4.00;;
47513;SDS011;33951;51.988;5.910;2022-12-07T09:04:12;12.60;;;4.47;;
47513;SDS011;33951;51.988;5.910;2022-12-07T09:06:41;11.35;;;4.32;;
47513;SDS011;33951;51.988;5.910;2022-12-07T09:09:09;16.45;;;5.57;;
47513;SDS011;33951;51.988;5.910;2022-12-07T09:11:47;13.23;;;4.35;;
47513;SDS011;33951;51.988;5.910;2022-12-07T09:14:13;24.17;;;14.32;;
47513;SDS011;33951;51.988;5.910;2022-12-07T09:16:42;20.40;;;12.93;;
47513;SDS011;33951;51.988;5.910;2022-12-07T09:19:10;15.32;;;8.30;;
47513;SDS011;33951;51.988;5.910;2022-12-07T09:21:36;16.75;;;6.53;;
47513;SDS011;33951;51.988;5.910;2022-12-07T09:24:04;12.65;;;4.50;;
47513;SDS011;33951;51.988;5.910;2022-12-07T09:26:29;9.95;;;6.05;;
47513;SDS011;33951;51.988;5.910;2022-12-07T09:29:05;12.82;;;6.30;;
47513;SDS011;33951;51.988;5.910;2022-12-07T09:31:39;14.02;;;5.20;;
47513;SDS011;33951;51.988;5.910;2022-12-07T09:34:11;15.23;;;6.97;;
47513;SDS011;33951;51.988;5.910;2022-12-07T09:36:39;23.33;;;6.07;;
47513;SDS011;33951;51.988;5.910;2022-12-07T09:39:07;18.02;;;5.40;;
47513;SDS011;33951;51.988;5.910;2022-12-07T09:41:39;15.02;;;4.45;;
47513;SDS011;33951;51.988;5.910;2022-12-07T09:44:11;9.00;;;4.18;;
47513;SDS011;33951;51.988;5.910;2022-12-07T09:46:42;9.65;;;4.13;;
47513;SDS011;33951;51.988;5.910;2022-12-07T09:49:22;11.43;;;4.50;;
47513;SDS011;33951;51.988;5.910;2022-12-07T09:54:45;4.57;;;2.35;;
47513;SDS011;33951;51.988;5.910;2022-12-07T09:57:18;9.18;;;3.50;;
47513;SDS011;33951;51.988;5.910;2022-12-07T10:00:16;9.38;;;3.10;;
47513;SDS011;33951;51.988;5.910;2022-12-07T10:02:47;10.57;;;2.95;;
47513;SDS011;33951;51.988;5.910;2022-12-07T10:05:16;14.80;;;3.33;;
47513;SDS011;33951;51.988;5.910;2022-12-07T10:07:49;11.10;;;3.85;;
47513;SDS011;33951;51.988;5.910;2022-12-07T10:10:16;13.13;;;4.32;;
47513;SDS011;33951;51.988;5.910;2022-12-07T10:12:54;14.13;;;4.05;;
47513;SDS011;33951;51.988;5.910;2022-12-07T10:18:43;13.68;;;4.38;;
47513;SDS011;33951;51.988;5.910;2022-12-07T10:24:03;19.38;;;5.03;;
47513;SDS011;33951;51.988;5.910;2022-12-07T10:28:59;56.33;;;9.68;;
47513;SDS011;33951;51.988;5.910;2022-12-07T10:31:26;22.98;;;5.22;;
47513;SDS011;33951;51.988;5.910;2022-12-07T10:33:54;17.38;;;4.70;;
47513;SDS011;33951;51.988;5.910;2022-12-07T10:36:25;35.55;;;6.78;;
47513;SDS011;33951;51.988;5.910;2022-12-07T10:41:58;23.35;;;5.82;;
47513;SDS011;33951;51.988;5.910;2022-12-07T10:44:26;10.57;;;3.17;;
47513;SDS011;33951;51.988;5.910;2022-12-07T10:49:42;19.15;;;4.45;;
47513;SDS011;33951;51.988;5.910;2022-12-07T10:52:27;23.73;;;4.43;;
47513;SDS011;33951;51.988;5.910;2022-12-07T11:00:17;25.92;;;5.70;;
47513;SDS011;33951;51.988;5.910;2022-12-07T11:11:16;11.73;;;2.85;;
47513;SDS011;33951;51.988;5.910;2022-12-07T11:14:11;24.55;;;5.30;;
47513;SDS011;33951;51.988;5.910;2022-12-07T11:19:32;16.90;;;4.50;;
47513;SDS011;33951;51.988;5.910;2022-12-07T11:22:50;15.70;;;3.90;;
47513;SDS011;33951;51.988;5.910;2022-12-07T11:33:17;14.20;;;4.10;;
47513;SDS011;33951;51.988;5.910;2022-12-07T11:36:37;28.05;;;4.60;;
47513;SDS011;33951;51.988;5.910;2022-12-07T11:41:27;10.13;;;2.55;;
47513;SDS011;33951;51.988;5.910;2022-12-07T11:46:36;10.13;;;3.97;;
47513;SDS011;33951;51.988;5.910;2022-12-07T11:52:01;18.77;;;13.05;;
47513;SDS011;33951;51.988;5.910;2022-12-07T11:54:30;9.75;;;8.30;;
47513;SDS011;33951;51.988;5.910;2022-12-07T11:57:02;11.20;;;2.42;;
47513;SDS011;33951;51.988;5.910;2022-12-07T11:59:36;10.77;;;2.10;;
47513;SDS011;33951;51.988;5.910;2022-12-07T12:02:16;6.45;;;2.55;;
47513;SDS011;33951;51.988;5.910;2022-12-07T12:07:41;6.47;;;1.83;;
47513;SDS011;33951;51.988;5.910;2022-12-07T12:16:04;8.95;;;2.03;;
47513;SDS011;33951;51.988;5.910;2022-12-07T12:21:40;10.65;;;2.47;;
47513;SDS011;33951;51.988;5.910;2022-12-07T12:24:18;11.85;;;2.33;;
47513;SDS011;33951;51.988;5.910;2022-12-07T12:27:05;14.15;;;2.83;;
47513;SDS011;33951;51.988;5.910;2022-12-07T12:29:36;10.35;;;2.28;;
47513;SDS011;33951;51.988;5.910;2022-12-07T12:32:12;8.40;;;2.63;;
47513;SDS011;33951;51.988;5.910;2022-12-07T12:42:58;9.60;;;3.05;;
47513;SDS011;33951;51.988;5.910;2022-12-07T12:45:25;8.73;;;2.33;;
47513;SDS011;33951;51.988;5.910;2022-12-07T12:48:04;9.85;;;2.53;;
47513;SDS011;33951;51.988;5.910;2022-12-07T12:50:48;8.00;;;3.28;;
47513;SDS011;33951;51.988;5.910;2022-12-07T12:53:15;5.88;;;2.20;;
47513;SDS011;33951;51.988;5.910;2022-12-07T13:00:43;6.35;;;2.22;;
47513;SDS011;33951;51.988;5.910;2022-12-07T13:03:30;8.10;;;1.85;;
47513;SDS011;33951;51.988;5.910;2022-12-07T13:08:51;9.60;;;2.58;;
47513;SDS011;33951;51.988;5.910;2022-12-07T13:11:39;11.85;;;2.67;;
47513;SDS011;33951;51.988;5.910;2022-12-07T13:17:02;8.40;;;2.03;;
47513;SDS011;33951;51.988;5.910;2022-12-07T13:20:19;7.53;;;2.15;;
47513;SDS011;33951;51.988;5.910;2022-12-07T13:25:20;5.97;;;2.20;;
47513;SDS011;33951;51.988;5.910;2022-12-07T13:27:51;13.90;;;2.65;;
47513;SDS011;33951;51.988;5.910;2022-12-07T13:30:25;5.15;;;2.47;;
47513;SDS011;33951;51.988;5.910;2022-12-07T13:32:55;10.00;;;2.70;;
47513;SDS011;33951;51.988;5.910;2022-12-07T13:35:28;9.43;;;2.30;;
47513;SDS011;33951;51.988;5.910;2022-12-07T13:38:01;8.23;;;2.47;;
47513;SDS011;33951;51.988;5.910;2022-12-07T13:40:29;9.32;;;2.75;;
47513;SDS011;33951;51.988;5.910;2022-12-07T13:42:59;8.25;;;2.40;;
47513;SDS011;33951;51.988;5.910;2022-12-07T13:45:30;9.05;;;2.28;;
47513;SDS011;33951;51.988;5.910;2022-12-07T13:48:32;10.55;;;4.32;;
47513;SDS011;33951;51.988;5.910;2022-12-07T13:51:01;8.90;;;2.50;;
47513;SDS011;33951;51.988;5.910;2022-12-07T13:53:31;11.48;;;2.58;;
47513;SDS011;33951;51.988;5.910;2022-12-07T13:56:00;7.47;;;2.30;;
47513;SDS011;33951;51.988;5.910;2022-12-07T13:58:27;13.70;;;4.25;;
47513;SDS011;33951;51.988;5.910;2022-12-07T14:00:56;12.88;;;3.67;;
47513;SDS011;33951;51.988;5.910;2022-12-07T14:03:30;20.55;;;5.68;;
47513;SDS011;33951;51.988;5.910;2022-12-07T14:08:45;10.32;;;2.40;;
47513;SDS011;33951;51.988;5.910;2022-12-07T14:11:18;5.93;;;1.80;;
47513;SDS011;33951;51.988;5.910;2022-12-07T14:13:56;13.73;;;3.92;;
47513;SDS011;33951;51.988;5.910;2022-12-07T14:16:27;8.13;;;1.92;;
47513;SDS011;33951;51.988;5.910;2022-12-07T14:18:56;4.55;;;1.60;;
47513;SDS011;33951;51.988;5.910;2022-12-07T14:21:25;31.65;;;6.25;;
47513;SDS011;33951;51.988;5.910;2022-12-07T14:26:35;13.73;;;2.80;;
47513;SDS011;33951;51.988;5.910;2022-12-07T14:31:46;12.73;;;2.92;;
47513;SDS011;33951;51.988;5.910;2022-12-07T14:34:12;8.82;;;1.80;;
47513;SDS011;33951;51.988;5.910;2022-12-07T14:36:38;5.50;;;1.95;;
47513;SDS011;33951;51.988;5.910;2022-12-07T14:39:03;16.10;;;3.75;;
47513;SDS011;33951;51.988;5.910;2022-12-07T14:41:29;16.73;;;3.50;;
47513;SDS011;33951;51.988;5.910;2022-12-07T14:44:13;9.98;;;2.63;;
47513;SDS011;33951;51.988;5.910;2022-12-07T14:46:39;16.65;;;4.28;;
47513;SDS011;33951;51.988;5.910;2022-12-07T14:49:04;11.82;;;2.83;;
47513;SDS011;33951;51.988;5.910;2022-12-07T14:51:30;20.67;;;3.88;;
47513;SDS011;33951;51.988;5.910;2022-12-07T14:53:57;25.05;;;5.43;;
47513;SDS011;33951;51.988;5.910;2022-12-07T14:56:22;11.10;;;2.13;;
47513;SDS011;33951;51.988;5.910;2022-12-07T14:58:48;7.53;;;3.10;;
47513;SDS011;33951;51.988;5.910;2022-12-07T15:01:14;10.63;;;2.20;;
47513;SDS011;33951;51.988;5.910;2022-12-07T15:03:40;12.75;;;3.28;;
47513;SDS011;33951;51.988;5.910;2022-12-07T15:06:05;11.35;;;2.45;;
47513;SDS011;33951;51.988;5.910;2022-12-07T15:08:31;9.30;;;2.00;;
47513;SDS011;33951;51.988;5.910;2022-12-07T15:10:58;12.43;;;2.05;;
47513;SDS011;33951;51.988;5.910;2022-12-07T15:13:23;7.05;;;1.98;;
47513;SDS011;33951;51.988;5.910;2022-12-07T15:16:09;7.43;;;2.03;;
47513;SDS011;33951;51.988;5.910;2022-12-07T15:18:38;7.28;;;1.50;;
47513;SDS011;33951;51.988;5.910;2022-12-07T15:21:04;10.25;;;1.90;;
47513;SDS011;33951;51.988;5.910;2022-12-07T15:23:30;17.63;;;8.25;;
47513;SDS011;33951;51.988;5.910;2022-12-07T15:25:56;10.27;;;3.20;;
47513;SDS011;33951;51.988;5.910;2022-12-07T15:28:21;28.80;;;7.13;;
47513;SDS011;33951;51.988;5.910;2022-12-07T15:30:47;7.85;;;2.83;;
47513;SDS011;33951;51.988;5.910;2022-12-07T15:33:13;9.25;;;2.88;;
47513;SDS011;33951;51.988;5.910;2022-12-07T15:35:39;7.28;;;2.30;;
47513;SDS011;33951;51.988;5.910;2022-12-07T15:38:08;7.47;;;2.42;;
47513;SDS011;33951;51.988;5.910;2022-12-07T15:40:34;8.57;;;2.85;;
47513;SDS011;33951;51.988;5.910;2022-12-07T15:43:00;9.13;;;3.03;;
47513;SDS011;33951;51.988;5.910;2022-12-07T15:45:26;8.93;;;3.10;;
47513;SDS011;33951;51.988;5.910;2022-12-07T15:47:52;18.75;;;5.10;;
47513;SDS011;33951;51.988;5.910;2022-12-07T15:50:19;9.57;;;3.95;;
47513;SDS011;33951;51.988;5.910;2022-12-07T15:52:45;30.40;;;17.27;;
47513;SDS011;33951;51.988;5.910;2022-12-07T15:55:11;57.22;;;41.55;;
47513;SDS011;33951;51.988;5.910;2022-12-07T15:57:37;29.33;;;22.80;;
47513;SDS011;33951;51.988;5.910;2022-12-07T16:00:07;23.00;;;20.30;;
47513;SDS011;33951;51.988;5.910;2022-12-07T16:04:59;17.70;;;10.30;;
47513;SDS011;33951;51.988;5.910;2022-12-07T16:07:25;11.13;;;5.03;;
47513;SDS011;33951;51.988;5.910;2022-12-07T16:09:53;10.85;;;5.30;;
47513;SDS011;33951;51.988;5.910;2022-12-07T16:12:19;9.35;;;4.65;;
47513;SDS011;33951;51.988;5.910;2022-12-07T16:14:45;11.18;;;3.55;;
47513;SDS011;33951;51.988;5.910;2022-12-07T16:17:10;17.75;;;11.80;;
47513;SDS011;33951;51.988;5.910;2022-12-07T16:19:36;55.97;;;32.85;;
47513;SDS011;33951;51.988;5.910;2022-12-07T16:22:03;22.13;;;9.77;;
47513;SDS011;33951;51.988;5.910;2022-12-07T16:24:29;12.63;;;6.20;;
47513;SDS011;33951;51.988;5.910;2022-12-07T16:26:55;9.18;;;4.45;;
47513;SDS011;33951;51.988;5.910;2022-12-07T16:29:21;14.10;;;6.00;;
47513;SDS011;33951;51.988;5.910;2022-12-07T16:32:07;18.60;;;5.88;;
47513;SDS011;33951;51.988;5.910;2022-12-07T16:34:33;13.07;;;5.40;;
47513;SDS011;33951;51.988;5.910;2022-12-07T16:36:58;10.75;;;4.03;;
47513;SDS011;33951;51.988;5.910;2022-12-07T16:39:40;36.65;;;8.45;;
47513;SDS011;33951;51.988;5.910;2022-12-07T16:42:14;21.67;;;5.35;;
47513;SDS011;33951;51.988;5.910;2022-12-07T16:44:39;94.10;;;20.58;;
47513;SDS011;33951;51.988;5.910;2022-12-07T16:47:40;10.07;;;3.75;;
47513;SDS011;33951;51.988;5.910;2022-12-07T16:50:13;10.55;;;4.38;;
47513;SDS011;33951;51.988;5.910;2022-12-07T16:56:18;7.85;;;3.50;;
47513;SDS011;33951;51.988;5.910;2022-12-07T16:58:44;6.82;;;3.60;;
47513;SDS011;33951;51.988;5.910;2022-12-07T17:01:12;8.57;;;3.58;;
47513;SDS011;33951;51.988;5.910;2022-12-07T17:03:42;11.73;;;5.15;;
47513;SDS011;33951;51.988;5.910;2022-12-07T17:06:26;13.68;;;5.90;;
47513;SDS011;33951;51.988;5.910;2022-12-07T17:08:53;14.15;;;5.90;;
47513;SDS011;33951;51.988;5.910;2022-12-07T17:11:20;11.80;;;4.47;;
47513;SDS011;33951;51.988;5.910;2022-12-07T17:13:47;13.20;;;5.15;;
47513;SDS011;33951;51.988;5.910;2022-12-07T17:16:32;16.15;;;5.18;;
47513;SDS011;33951;51.988;5.910;2022-12-07T17:19:08;13.82;;;5.78;;
47513;SDS011;33951;51.988;5.910;2022-12-07T17:21:35;13.43;;;5.57;;
47513;SDS011;33951;51.988;5.910;2022-12-07T17:24:02;21.60;;;7.15;;
47513;SDS011;33951;51.988;5.910;2022-12-07T17:26:30;12.93;;;5.20;;
47513;SDS011;33951;51.988;5.910;2022-12-07T17:28:56;20.35;;;5.85;;
47513;SDS011;33951;51.988;5.910;2022-12-07T17:31:23;22.35;;;7.15;;
47513;SDS011;33951;51.988;5.910;2022-12-07T17:33:49;18.10;;;5.95;;
47513;SDS011;33951;51.988;5.910;2022-12-07T17:36:16;8.82;;;4.22;;
47513;SDS011;33951;51.988;5.910;2022-12-07T17:38:46;13.70;;;6.47;;
47513;SDS011;33951;51.988;5.910;2022-12-07T17:41:16;13.63;;;9.07;;
47513;SDS011;33951;51.988;5.910;2022-12-07T17:44:06;32.67;;;17.02;;
47513;SDS011;33951;51.988;5.910;2022-12-07T17:46:33;16.55;;;9.68;;
47513;SDS011;33951;51.988;5.910;2022-12-07T17:49:02;11.05;;;6.80;;
47513;SDS011;33951;51.988;5.910;2022-12-07T17:51:29;10.00;;;6.57;;
47513;SDS011;33951;51.988;5.910;2022-12-07T17:54:13;10.30;;;6.32;;
47513;SDS011;33951;51.988;5.910;2022-12-07T17:56:39;17.17;;;9.68;;
47513;SDS011;33951;51.988;5.910;2022-12-07T17:59:05;19.52;;;7.95;;
47513;SDS011;33951;51.988;5.910;2022-12-07T18:01:31;16.17;;;7.10;;
47513;SDS011;33951;51.988;5.910;2022-12-07T18:04:00;15.00;;;8.18;;
47513;SDS011;33951;51.988;5.910;2022-12-07T18:06:26;14.38;;;8.75;;
47513;SDS011;33951;51.988;5.910;2022-12-07T18:08:52;13.70;;;7.00;;
47513;SDS011;33951;51.988;5.910;2022-12-07T18:11:18;16.25;;;8.30;;
47513;SDS011;33951;51.988;5.910;2022-12-07T18:13:43;19.02;;;10.23;;
47513;SDS011;33951;51.988;5.910;2022-12-07T18:16:13;14.25;;;8.52;;
47513;SDS011;33951;51.988;5.910;2022-12-07T18:18:44;16.17;;;8.73;;
47513;SDS011;33951;51.988;5.910;2022-12-07T18:21:17;19.73;;;9.00;;
47513;SDS011;33951;51.988;5.910;2022-12-07T18:23:44;26.70;;;14.75;;
47513;SDS011;33951;51.988;5.910;2022-12-07T18:26:12;19.13;;;9.88;;
47513;SDS011;33951;51.988;5.910;2022-12-07T18:28:38;20.85;;;10.98;;
47513;SDS011;33951;51.988;5.910;2022-12-07T18:31:05;20.60;;;13.18;;
47513;SDS011;33951;51.988;5.910;2022-12-07T18:33:31;12.27;;;8.93;;
47513;SDS011;33951;51.988;5.910;2022-12-07T18:35:58;17.48;;;10.02;;
47513;SDS011;33951;51.988;5.910;2022-12-07T18:38:24;15.65;;;8.77;;
47513;SDS011;33951;51.988;5.910;2022-12-07T18:40:51;14.70;;;8.30;;
47513;SDS011;33951;51.988;5.910;2022-12-07T18:43:17;18.52;;;10.63;;
47513;SDS011;33951;51.988;5.910;2022-12-07T18:45:43;19.17;;;9.60;;
47513;SDS011;33951;51.988;5.910;2022-12-07T18:48:13;19.63;;;10.23;;
47513;SDS011;33951;51.988;5.910;2022-12-07T18:50:40;15.30;;;8.68;;
47513;SDS011;33951;51.988;5.910;2022-12-07T18:53:07;18.80;;;9.43;;
47513;SDS011;33951;51.988;5.910;2022-12-07T18:55:32;14.25;;;8.75;;
47513;SDS011;33951;51.988;5.910;2022-12-07T18:57:58;14.48;;;8.77;;
47513;SDS011;33951;51.988;5.910;2022-12-07T19:00:25;20.00;;;8.40;;
47513;SDS011;33951;51.988;5.910;2022-12-07T19:02:52;19.95;;;7.28;;
47513;SDS011;33951;51.988;5.910;2022-12-07T19:05:18;14.20;;;7.53;;
47513;SDS011;33951;51.988;5.910;2022-12-07T19:07:44;12.35;;;6.93;;
47513;SDS011;33951;51.988;5.910;2022-12-07T19:10:11;11.23;;;6.70;;
47513;SDS011;33951;51.988;5.910;2022-12-07T19:12:38;16.73;;;7.65;;
47513;SDS011;33951;51.988;5.910;2022-12-07T19:15:04;11.23;;;6.75;;
47513;SDS011;33951;51.988;5.910;2022-12-07T19:17:31;13.75;;;7.03;;
47513;SDS011;33951;51.988;5.910;2022-12-07T19:19:57;15.48;;;6.63;;
47513;SDS011;33951;51.988;5.910;2022-12-07T19:22:23;17.60;;;5.80;;
47513;SDS011;33951;51.988;5.910;2022-12-07T19:24:49;8.57;;;5.38;;
47513;SDS011;33951;51.988;5.910;2022-12-07T19:27:17;11.43;;;5.95;;
47513;SDS011;33951;51.988;5.910;2022-12-07T19:29:44;18.17;;;7.45;;
47513;SDS011;33951;51.988;5.910;2022-12-07T19:32:10;7.55;;;4.78;;
47513;SDS011;33951;51.988;5.910;2022-12-07T19:34:37;9.25;;;4.72;;
47513;SDS011;33951;51.988;5.910;2022-12-07T19:37:05;27.33;;;13.40;;
47513;SDS011;33951;51.988;5.910;2022-12-07T19:39:31;15.15;;;6.18;;
47513;SDS011;33951;51.988;5.910;2022-12-07T19:41:57;10.95;;;5.28;;
47513;SDS011;33951;51.988;5.910;2022-12-07T19:44:23;20.23;;;12.98;;
47513;SDS011;33951;51.988;5.910;2022-12-07T19:46:50;9.52;;;6.53;;
47513;SDS011;33951;51.988;5.910;2022-12-07T19:49:19;17.35;;;10.15;;
47513;SDS011;33951;51.988;5.910;2022-12-07T19:51:47;8.88;;;5.82;;
47513;SDS011;33951;51.988;5.910;2022-12-07T19:54:15;23.15;;;9.90;;
47513;SDS011;33951;51.988;5.910;2022-12-07T19:56:44;10.80;;;7.22;;
47513;SDS011;33951;51.988;5.910;2022-12-07T19:59:14;12.60;;;6.95;;
47513;SDS011;33951;51.988;5.910;2022-12-07T20:01:41;16.60;;;7.18;;
47513;SDS011;33951;51.988;5.910;2022-12-07T20:04:08;16.13;;;7.15;;
47513;SDS011;33951;51.988;5.910;2022-12-07T20:06:43;10.60;;;6.38;;
47513;SDS011;33951;51.988;5.910;2022-12-07T20:09:09;12.27;;;6.78;;
47513;SDS011;33951;51.988;5.910;2022-12-07T20:11:36;11.70;;;6.78;;
47513;SDS011;33951;51.988;5.910;2022-12-07T20:14:20;12.98;;;6.53;;
47513;SDS011;33951;51.988;5.910;2022-12-07T20:16:47;12.95;;;6.75;;
47513;SDS011;33951;51.988;5.910;2022-12-07T20:19:14;13.20;;;6.85;;
47513;SDS011;33951;51.988;5.910;2022-12-07T20:21:40;15.88;;;6.93;;
47513;SDS011;33951;51.988;5.910;2022-12-07T20:24:09;11.90;;;6.95;;
47513;SDS011;33951;51.988;5.910;2022-12-07T20:26:36;12.45;;;6.55;;
47513;SDS011;33951;51.988;5.910;2022-12-07T20:29:06;14.40;;;6.50;;
47513;SDS011;33951;51.988;5.910;2022-12-07T20:31:33;15.10;;;6.70;;
47513;SDS011;33951;51.988;5.910;2022-12-07T20:33:59;15.10;;;8.57;;
47513;SDS011;33951;51.988;5.910;2022-12-07T20:36:25;19.45;;;9.82;;
47513;SDS011;33951;51.988;5.910;2022-12-07T20:38:51;14.88;;;8.70;;
47513;SDS011;33951;51.988;5.910;2022-12-07T20:41:17;15.43;;;10.10;;
47513;SDS011;33951;51.988;5.910;2022-12-07T20:44:02;19.92;;;12.77;;
47513;SDS011;33951;51.988;5.910;2022-12-07T20:46:28;13.13;;;9.57;;
47513;SDS011;33951;51.988;5.910;2022-12-07T20:48:54;20.13;;;10.95;;
47513;SDS011;33951;51.988;5.910;2022-12-07T20:51:22;18.00;;;10.98;;
47513;SDS011;33951;51.988;5.910;2022-12-07T20:53:48;23.35;;;12.60;;
47513;SDS011;33951;51.988;5.910;2022-12-07T20:56:20;26.85;;;12.80;;
47513;SDS011;33951;51.988;5.910;2022-12-07T20:58:54;20.05;;;11.00;;
47513;SDS011;33951;51.988;5.910;2022-12-07T21:01:21;20.00;;;11.93;;
47513;SDS011;33951;51.988;5.910;2022-12-07T21:03:46;19.33;;;11.23;;
47513;SDS011;33951;51.988;5.910;2022-12-07T21:06:15;23.45;;;12.90;;
47513;SDS011;33951;51.988;5.910;2022-12-07T21:08:42;16.90;;;8.77;;
47513;SDS011;33951;51.988;5.910;2022-12-07T21:11:09;19.08;;;11.70;;
47513;SDS011;33951;51.988;5.910;2022-12-07T21:13:35;17.10;;;10.38;;
47513;SDS011;33951;51.988;5.910;2022-12-07T21:16:05;21.33;;;10.43;;
47513;SDS011;33951;51.988;5.910;2022-12-07T21:18:32;14.95;;;9.55;;
47513;SDS011;33951;51.988;5.910;2022-12-07T21:21:01;22.25;;;12.77;;
47513;SDS011;33951;51.988;5.910;2022-12-07T21:23:27;14.48;;;10.90;;
47513;SDS011;33951;51.988;5.910;2022-12-07T21:25:52;20.65;;;12.55;;
47513;SDS011;33951;51.988;5.910;2022-12-07T21:28:18;20.80;;;11.70;;
47513;SDS011;33951;51.988;5.910;2022-12-07T21:30:43;18.33;;;11.68;;
47513;SDS011;33951;51.988;5.910;2022-12-07T21:33:09;20.10;;;12.52;;
47513;SDS011;33951;51.988;5.910;2022-12-07T21:35:36;22.23;;;13.10;;
47513;SDS011;33951;51.988;5.910;2022-12-07T21:38:02;22.95;;;13.30;;
47513;SDS011;33951;51.988;5.910;2022-12-07T21:40:28;31.65;;;20.17;;
47513;SDS011;33951;51.988;5.910;2022-12-07T21:42:54;29.98;;;14.02;;
47513;SDS011;33951;51.988;5.910;2022-12-07T21:45:19;20.20;;;13.38;;
47513;SDS011;33951;51.988;5.910;2022-12-07T21:47:45;21.35;;;13.52;;
47513;SDS011;33951;51.988;5.910;2022-12-07T21:50:10;21.65;;;12.30;;
47513;SDS011;33951;51.988;5.910;2022-12-07T21:52:36;21.70;;;11.48;;
47513;SDS011;33951;51.988;5.910;2022-12-07T21:55:02;22.42;;;13.13;;
47513;SDS011;33951;51.988;5.910;2022-12-07T21:57:27;21.85;;;11.98;;
47513;SDS011;33951;51.988;5.910;2022-12-07T21:59:53;17.10;;;12.13;;
47513;SDS011;33951;51.988;5.910;2022-12-07T22:02:18;29.98;;;12.20;;
47513;SDS011;33951;51.988;5.910;2022-12-07T22:04:44;18.40;;;11.43;;
47513;SDS011;33951;51.988;5.910;2022-12-07T22:07:10;23.10;;;12.77;;
47513;SDS011;33951;51.988;5.910;2022-12-07T22:09:35;25.65;;;12.70;;
47513;SDS011;33951;51.988;5.910;2022-12-07T22:12:01;18.85;;;10.57;;
47513;SDS011;33951;51.988;5.910;2022-12-07T22:14:27;15.68;;;10.35;;
47513;SDS011;33951;51.988;5.910;2022-12-07T22:17:11;17.33;;;10.65;;
47513;SDS011;33951;51.988;5.910;2022-12-07T22:19:36;20.40;;;11.75;;